sensor_id;sensor_type;location;lat;lon;timestamp;pressure;altitude;pressure_sealevel;temperature;humidity
3294;BME280;1659;51.470;6.770;2023-01-31T00:01:36;102322.88;;;4.09;91.20
3294;BME280;1659;51.470;6.770;2023-01-31T00:04:04;102328.03;;;4.08;91.65
3294;BME280;1659;51.470;6.770;2023-01-31T00:06:33;102332.47;;;4.10;91.54
3294;BME280;1659;51.470;6.770;2023-01-31T00:09:00;102325.59;;;4.14;91.31
3294;BME280;1659;51.470;6.770;2023-01-31T00:11:28;102318.72;;;4.16;91.28
3294;BME280;1659;51.470;6.770;2023-01-31T00:13:56;102321.47;;;4.21;91.47
3294;BME280;1659;51.470;6.770;2023-01-31T00:16:23;102317.16;;;4.23;91.46
3294;BME280;1659;51.470;6.770;2023-01-31T00:18:51;102319.91;;;4.26;91.21
3294;BME280;1659;51.470;6.770;2023-01-31T00:21:19;102322.66;;;4.30;91.43
3294;BME280;1659;51.470;6.770;2023-01-31T00:23:47;102319.31;;;4.34;91.61
3294;BME280;1659;51.470;6.770;2023-01-31T00:26:15;102329.88;;;4.38;91.25
3294;BME280;1659;51.470;6.770;2023-01-31T00:28:44;102331.69;;;4.40;91.12
3294;BME280;1659;51.470;6.770;2023-01-31T00:31:12;102324.78;;;4.42;91.49
3294;BME280;1659;51.470;6.770;2023-01-31T00:33:40;102329.13;;;4.42;91.20
3294;BME280;1659;51.470;6.770;2023-01-31T00:36:11;102334.31;;;4.40;90.69
3294;BME280;1659;51.470;6.770;2023-01-31T00:38:38;102328.09;;;4.37;90.83
3294;BME280;1659;51.470;6.770;2023-01-31T00:41:06;102327.97;;;4.32;90.82
3294;BME280;1659;51.470;6.770;2023-01-31T00:43:33;102333.03;;;4.27;90.68
3294;BME280;1659;51.470;6.770;2023-01-31T00:46:00;102331.06;;;4.20;90.98
3294;BME280;1659;51.470;6.770;2023-01-31T00:48:27;102333.44;;;4.12;90.67
3294;BME280;1659;51.470;6.770;2023-01-31T00:50:54;102331.41;;;4.04;90.87
3294;BME280;1659;51.470;6.770;2023-01-31T00:53:22;102328.50;;;3.96;90.68
3294;BME280;1659;51.470;6.770;2023-01-31T00:55:50;102324.78;;;3.89;91.18
3294;BME280;1659;51.470;6.770;2023-01-31T00:58:17;102341.97;;;3.81;90.83
3294;BME280;1659;51.470;6.770;2023-01-31T01:00:44;102334.72;;;3.74;91.17
3294;BME280;1659;51.470;6.770;2023-01-31T01:03:11;102343.13;;;3.65;91.14
3294;BME280;1659;51.470;6.770;2023-01-31T01:05:37;102342.00;;;3.57;91.37
3294;BME280;1659;51.470;6.770;2023-01-31T01:08:04;102341.78;;;3.51;91.38
3294;BME280;1659;51.470;6.770;2023-01-31T01:10:32;102345.06;;;3.45;91.72
3294;BME280;1659;51.470;6.770;2023-01-31T01:12:59;102344.94;;;3.42;91.71
3294;BME280;1659;51.470;6.770;2023-01-31T01:15:25;102343.19;;;3.41;91.92
3294;BME280;1659;51.470;6.770;2023-01-31T01:17:52;102347.50;;;3.40;91.78
3294;BME280;1659;51.470;6.770;2023-01-31T01:20:18;102337.91;;;3.39;91.75
3294;BME280;1659;51.470;6.770;2023-01-31T01:22:45;102343.13;;;3.39;91.73
3294;BME280;1659;51.470;6.770;2023-01-31T01:25:11;102342.13;;;3.36;91.59
3294;BME280;1659;51.470;6.770;2023-01-31T01:27:39;102347.22;;;3.33;91.47
3294;BME280;1659;51.470;6.770;2023-01-31T01:30:07;102352.22;;;3.27;91.68
3294;BME280;1659;51.470;6.770;2023-01-31T01:32:34;102336.47;;;3.24;91.79
3294;BME280;1659;51.470;6.770;2023-01-31T01:35:01;102337.28;;;3.22;91.97
3294;BME280;1659;51.470;6.770;2023-01-31T01:37:27;102326.00;;;3.24;92.09
3294;BME280;1659;51.470;6.770;2023-01-31T01:39:54;102318.25;;;3.27;92.03
3294;BME280;1659;51.470;6.770;2023-01-31T01:42:22;102325.28;;;3.28;92.03
3294;BME280;1659;51.470;6.770;2023-01-31T01:44:52;102321.94;;;3.32;91.90
3294;BME280;1659;51.470;6.770;2023-01-31T01:47:25;102315.88;;;3.33;91.79
3294;BME280;1659;51.470;6.770;2023-01-31T01:49:57;102318.56;;;3.34;91.94
3294;BME280;1659;51.470;6.770;2023-01-31T01:52:27;102323.91;;;3.37;92.02
3294;BME280;1659;51.470;6.770;2023-01-31T01:54:57;102312.66;;;3.40;92.10
3294;BME280;1659;51.470;6.770;2023-01-31T01:57:29;102325.84;;;3.43;92.05
3294;BME280;1659;51.470;6.770;2023-01-31T02:00:05;102325.88;;;3.45;92.10
3294;BME280;1659;51.470;6.770;2023-01-31T02:02:34;102328.56;;;3.46;92.25
3294;BME280;1659;51.470;6.770;2023-01-31T02:05:02;102331.22;;;3.48;92.48
3294;BME280;1659;51.470;6.770;2023-01-31T02:07:29;102324.09;;;3.44;91.86
3294;BME280;1659;51.470;6.770;2023-01-31T02:10:00;102322.22;;;3.39;91.85
3294;BME280;1659;51.470;6.770;2023-01-31T02:12:29;102328.06;;;3.32;91.75
3294;BME280;1659;51.470;6.770;2023-01-31T02:14:57;102332.13;;;3.24;91.47
3294;BME280;1659;51.470;6.770;2023-01-31T02:17:25;102335.28;;;3.15;92.00
3294;BME280;1659;51.470;6.770;2023-01-31T02:20:02;102343.72;;;3.08;92.28
3294;BME280;1659;51.470;6.770;2023-01-31T02:22:38;102355.84;;;3.06;92.30
3294;BME280;1659;51.470;6.770;2023-01-31T02:25:34;102348.75;;;3.03;92.56
3294;BME280;1659;51.470;6.770;2023-01-31T02:28:33;102353.03;;;3.01;92.27
3294;BME280;1659;51.470;6.770;2023-01-31T02:31:35;102349.50;;;2.99;92.32
3294;BME280;1659;51.470;6.770;2023-01-31T02:34:13;102347.59;;;2.95;92.57
3294;BME280;1659;51.470;6.770;2023-01-31T02:36:51;102345.63;;;2.90;92.27
3294;BME280;1659;51.470;6.770;2023-01-31T02:39:27;102345.41;;;2.83;92.44
3294;BME280;1659;51.470;6.770;2023-01-31T02:42:00;102343.47;;;2.78;92.47
3294;BME280;1659;51.470;6.770;2023-01-31T02:44:35;102346.69;;;2.72;92.50
3294;BME280;1659;51.470;6.770;2023-01-31T02:47:37;102338.72;;;2.68;92.58
3294;BME280;1659;51.470;6.770;2023-01-31T02:50:12;102332.47;;;2.64;92.64
3294;BME280;1659;51.470;6.770;2023-01-31T02:52:45;102327.13;;;2.61;92.90
3294;BME280;1659;51.470;6.770;2023-01-31T02:55:16;102334.97;;;2.61;92.92
3294;BME280;1659;51.470;6.770;2023-01-31T02:58:04;102326.25;;;2.60;92.83
3294;BME280;1659;51.470;6.770;2023-01-31T03:00:34;102323.66;;;2.62;92.79
3294;BME280;1659;51.470;6.770;2023-01-31T03:03:04;102324.66;;;2.64;93.16
3294;BME280;1659;51.470;6.770;2023-01-31T03:05:33;102334.31;;;2.67;93.17
3294;BME280;1659;51.470;6.770;2023-01-31T03:08:01;102335.19;;;2.67;92.81
3294;BME280;1659;51.470;6.770;2023-01-31T03:10:58;102329.97;;;2.67;93.02
3294;BME280;1659;51.470;6.770;2023-01-31T03:13:40;102323.91;;;2.68;93.14
3294;BME280;1659;51.470;6.770;2023-01-31T03:16:17;102313.53;;;2.70;92.88
3294;BME280;1659;51.470;6.770;2023-01-31T03:19:08;102310.06;;;2.69;92.96
3294;BME280;1659;51.470;6.770;2023-01-31T03:21:43;102311.81;;;2.70;93.18
3294;BME280;1659;51.470;6.770;2023-01-31T03:24:12;102313.63;;;2.71;93.03
3294;BME280;1659;51.470;6.770;2023-01-31T03:26:39;102311.94;;;2.73;93.24
3294;BME280;1659;51.470;6.770;2023-01-31T03:29:07;102302.38;;;2.74;93.12
3294;BME280;1659;51.470;6.770;2023-01-31T03:31:38;102298.09;;;2.76;93.06
3294;BME280;1659;51.470;6.770;2023-01-31T03:34:08;102312.06;;;2.76;93.05
3294;BME280;1659;51.470;6.770;2023-01-31T03:36:40;102306.91;;;2.78;93.34
3294;BME280;1659;51.470;6.770;2023-01-31T03:39:16;102303.50;;;2.80;93.51
3294;BME280;1659;51.470;6.770;2023-01-31T03:41:53;102294.84;;;2.81;93.57
3294;BME280;1659;51.470;6.770;2023-01-31T03:44:29;102285.34;;;2.83;93.24
3294;BME280;1659;51.470;6.770;2023-01-31T03:47:04;102281.06;;;2.86;93.21
3294;BME280;1659;51.470;6.770;2023-01-31T03:49:36;102273.31;;;2.87;93.24
3294;BME280;1659;51.470;6.770;2023-01-31T03:52:10;102264.63;;;2.88;93.19
3294;BME280;1659;51.470;6.770;2023-01-31T03:54:47;102264.69;;;2.90;93.33
3294;BME280;1659;51.470;6.770;2023-01-31T03:57:24;102256.09;;;2.92;93.42
3294;BME280;1659;51.470;6.770;2023-01-31T03:59:56;102251.81;;;2.94;93.53
3294;BME280;1659;51.470;6.770;2023-01-31T04:02:27;102250.88;;;2.92;93.35
3294;BME280;1659;51.470;6.770;2023-01-31T04:05:01;102249.94;;;2.92;93.44
3294;BME280;1659;51.470;6.770;2023-01-31T04:07:30;102250.81;;;2.91;93.32
3294;BME280;1659;51.470;6.770;2023-01-31T04:09:57;102248.19;;;2.91;93.41
3294;BME280;1659;51.470;6.770;2023-01-31T04:12:24;102244.03;;;2.96;93.56
3294;BME280;1659;51.470;6.770;2023-01-31T04:14:50;102242.41;;;2.99;93.79
3294;BME280;1659;51.470;6.770;2023-01-31T04:17:17;102246.03;;;3.03;93.78
3294;BME280;1659;51.470;6.770;2023-01-31T04:19:43;102240.06;;;3.07;93.47
3294;BME280;1659;51.470;6.770;2023-01-31T04:22:10;102232.34;;;3.10;93.74
3294;BME280;1659;51.470;6.770;2023-01-31T04:24:38;102241.22;;;3.15;93.64
3294;BME280;1659;51.470;6.770;2023-01-31T04:27:04;102239.56;;;3.17;93.73
3294;BME280;1659;51.470;6.770;2023-01-31T04:29:31;102246.69;;;3.21;93.97
3294;BME280;1659;51.470;6.770;2023-01-31T04:31:57;102259.78;;;3.23;94.00
3294;BME280;1659;51.470;6.770;2023-01-31T04:34:24;102253.84;;;3.27;93.74
3294;BME280;1659;51.470;6.770;2023-01-31T04:36:50;102263.50;;;3.30;93.93
3294;BME280;1659;51.470;6.770;2023-01-31T04:39:17;102254.91;;;3.32;93.82
3294;BME280;1659;51.470;6.770;2023-01-31T04:41:45;102253.22;;;3.34;94.09
3294;BME280;1659;51.470;6.770;2023-01-31T04:44:11;102250.72;;;3.37;93.91
3294;BME280;1659;51.470;6.770;2023-01-31T04:46:38;102254.28;;;3.39;94.13
3294;BME280;1659;51.470;6.770;2023-01-31T04:49:04;102253.41;;;3.40;94.21
3294;BME280;1659;51.470;6.770;2023-01-31T04:51:31;102257.88;;;3.43;93.92
3294;BME280;1659;51.470;6.770;2023-01-31T04:53:57;102248.38;;;3.45;93.99
3294;BME280;1659;51.470;6.770;2023-01-31T04:56:24;102237.97;;;3.47;94.21
3294;BME280;1659;51.470;6.770;2023-01-31T04:58:52;102229.31;;;3.48;94.07
3294;BME280;1659;51.470;6.770;2023-01-31T05:01:18;102236.34;;;3.50;94.20
3294;BME280;1659;51.470;6.770;2023-01-31T05:03:45;102231.19;;;3.52;93.89
3294;BME280;1659;51.470;6.770;2023-01-31T05:06:11;102235.53;;;3.53;93.98
3294;BME280;1659;51.470;6.770;2023-01-31T05:08:38;102236.47;;;3.53;94.04
3294;BME280;1659;51.470;6.770;2023-01-31T05:11:05;102226.94;;;3.55;94.37
3294;BME280;1659;51.470;6.770;2023-01-31T05:13:32;102223.47;;;3.56;94.32
3294;BME280;1659;51.470;6.770;2023-01-31T05:16:05;102219.16;;;3.57;94.03
3294;BME280;1659;51.470;6.770;2023-01-31T05:18:32;102222.69;;;3.59;94.16
3294;BME280;1659;51.470;6.770;2023-01-31T05:20:59;102231.41;;;3.59;94.26
3294;BME280;1659;51.470;6.770;2023-01-31T05:23:26;102222.75;;;3.61;94.16
3294;BME280;1659;51.470;6.770;2023-01-31T05:25:53;102225.38;;;3.61;94.37
3294;BME280;1659;51.470;6.770;2023-01-31T05:28:19;102225.31;;;3.59;94.14
3294;BME280;1659;51.470;6.770;2023-01-31T05:30:46;102217.41;;;3.57;93.87
3294;BME280;1659;51.470;6.770;2023-01-31T05:33:14;102204.28;;;3.56;94.02
3294;BME280;1659;51.470;6.770;2023-01-31T05:35:41;102201.63;;;3.54;94.19
3294;BME280;1659;51.470;6.770;2023-01-31T05:38:08;102193.72;;;3.53;94.38
3294;BME280;1659;51.470;6.770;2023-01-31T05:40:34;102203.34;;;3.54;94.34
3294;BME280;1659;51.470;6.770;2023-01-31T05:43:01;102204.19;;;3.53;94.29
3294;BME280;1659;51.470;6.770;2023-01-31T05:45:28;102195.47;;;3.52;94.32
3294;BME280;1659;51.470;6.770;2023-01-31T05:47:55;102188.41;;;3.50;94.38
3294;BME280;1659;51.470;6.770;2023-01-31T05:50:23;102181.28;;;3.46;94.47
3294;BME280;1659;51.470;6.770;2023-01-31T05:52:50;102169.09;;;3.45;94.57
3294;BME280;1659;51.470;6.770;2023-01-31T05:55:17;102168.16;;;3.44;94.58
3294;BME280;1659;51.470;6.770;2023-01-31T05:57:44;102165.63;;;3.46;94.77
3294;BME280;1659;51.470;6.770;2023-01-31T06:00:12;102164.00;;;3.49;94.65
3294;BME280;1659;51.470;6.770;2023-01-31T06:02:40;102156.25;;;3.52;94.63
3294;BME280;1659;51.470;6.770;2023-01-31T06:05:07;102152.00;;;3.56;94.59
3294;BME280;1659;51.470;6.770;2023-01-31T06:07:36;102167.75;;;3.57;94.83
3294;BME280;1659;51.470;6.770;2023-01-31T06:10:04;102177.47;;;3.62;94.69
3294;BME280;1659;51.470;6.770;2023-01-31T06:12:31;102173.25;;;3.67;94.74
3294;BME280;1659;51.470;6.770;2023-01-31T06:14:58;102171.63;;;3.70;94.88
3294;BME280;1659;51.470;6.770;2023-01-31T06:17:24;102171.75;;;3.73;94.42
3294;BME280;1659;51.470;6.770;2023-01-31T06:19:51;102161.34;;;3.75;94.62
3294;BME280;1659;51.470;6.770;2023-01-31T06:22:18;102166.63;;;3.76;94.67
3294;BME280;1659;51.470;6.770;2023-01-31T06:24:46;102165.81;;;3.79;94.91
3294;BME280;1659;51.470;6.770;2023-01-31T06:27:13;102172.94;;;3.83;94.67
3294;BME280;1659;51.470;6.770;2023-01-31T06:29:39;102176.47;;;3.85;94.92
3294;BME280;1659;51.470;6.770;2023-01-31T06:32:06;102174.78;;;3.87;94.60
3294;BME280;1659;51.470;6.770;2023-01-31T06:34:33;102165.25;;;3.89;94.63
3294;BME280;1659;51.470;6.770;2023-01-31T06:36:59;102176.66;;;3.91;94.35
3294;BME280;1659;51.470;6.770;2023-01-31T06:39:26;102171.44;;;3.91;94.34
3294;BME280;1659;51.470;6.770;2023-01-31T06:41:54;102160.97;;;3.91;94.21
3294;BME280;1659;51.470;6.770;2023-01-31T06:44:21;102165.31;;;3.91;94.48
3294;BME280;1659;51.470;6.770;2023-01-31T06:46:47;102173.22;;;3.92;94.39
3294;BME280;1659;51.470;6.770;2023-01-31T06:49:14;102175.88;;;3.94;94.04
3294;BME280;1659;51.470;6.770;2023-01-31T06:51:40;102187.28;;;3.96;94.27
3294;BME280;1659;51.470;6.770;2023-01-31T06:54:07;102186.50;;;3.99;94.31
3294;BME280;1659;51.470;6.770;2023-01-31T06:56:34;102181.28;;;4.00;94.31
3294;BME280;1659;51.470;6.770;2023-01-31T06:59:02;102177.94;;;4.04;94.01
3294;BME280;1659;51.470;6.770;2023-01-31T07:01:28;102178.00;;;4.06;94.11
3294;BME280;1659;51.470;6.770;2023-01-31T07:03:55;102173.75;;;4.09;94.25
3294;BME280;1659;51.470;6.770;2023-01-31T07:06:24;102174.69;;;4.11;94.19
3294;BME280;1659;51.470;6.770;2023-01-31T07:08:51;102177.44;;;4.16;93.96
3294;BME280;1659;51.470;6.770;2023-01-31T07:11:17;102175.75;;;4.18;93.84
3294;BME280;1659;51.470;6.770;2023-01-31T07:13:44;102173.22;;;4.21;93.78
3294;BME280;1659;51.470;6.770;2023-01-31T07:16:13;102173.25;;;4.23;93.48
3294;BME280;1659;51.470;6.770;2023-01-31T07:18:41;102175.97;;;4.26;93.73
3294;BME280;1659;51.470;6.770;2023-01-31T07:21:08;102170.78;;;4.27;93.32
3294;BME280;1659;51.470;6.770;2023-01-31T07:23:35;102166.47;;;4.29;93.41
3294;BME280;1659;51.470;6.770;2023-01-31T07:26:02;102164.78;;;4.31;92.93
3294;BME280;1659;51.470;6.770;2023-01-31T07:28:29;102173.56;;;4.32;92.80
3294;BME280;1659;51.470;6.770;2023-01-31T07:30:55;102177.97;;;4.34;92.78
3294;BME280;1659;51.470;6.770;2023-01-31T07:33:23;102174.56;;;4.37;93.07
3294;BME280;1659;51.470;6.770;2023-01-31T07:35:50;102177.25;;;4.40;92.68
3294;BME280;1659;51.470;6.770;2023-01-31T07:38:17;102173.84;;;4.43;93.02
3294;BME280;1659;51.470;6.770;2023-01-31T07:40:43;102177.41;;;4.45;92.45
3294;BME280;1659;51.470;6.770;2023-01-31T07:43:10;102167.81;;;4.45;92.28
3294;BME280;1659;51.470;6.770;2023-01-31T07:45:38;102162.63;;;4.47;92.04
3294;BME280;1659;51.470;6.770;2023-01-31T07:48:06;102145.22;;;4.47;92.48
3294;BME280;1659;51.470;6.770;2023-01-31T07:50:34;102146.13;;;4.49;91.86
3294;BME280;1659;51.470;6.770;2023-01-31T07:53:01;102143.56;;;4.51;91.75
3294;BME280;1659;51.470;6.770;2023-01-31T07:55:27;102144.44;;;4.51;91.56
3294;BME280;1659;51.470;6.770;2023-01-31T07:57:54;102147.06;;;4.51;91.51
3294;BME280;1659;51.470;6.770;2023-01-31T08:00:21;102144.50;;;4.53;91.88
3294;BME280;1659;51.470;6.770;2023-01-31T08:03:05;102140.13;;;4.53;91.60
3294;BME280;1659;51.470;6.770;2023-01-31T08:05:50;102149.78;;;4.54;91.64
3294;BME280;1659;51.470;6.770;2023-01-31T08:08:17;102139.34;;;4.56;91.47
3294;BME280;1659;51.470;6.770;2023-01-31T08:10:43;102139.34;;;4.56;90.84
3294;BME280;1659;51.470;6.770;2023-01-31T08:13:11;102136.72;;;4.56;91.35
3294;BME280;1659;51.470;6.770;2023-01-31T08:15:37;102122.78;;;4.57;90.97
3294;BME280;1659;51.470;6.770;2023-01-31T08:18:04;102136.78;;;4.59;91.29
3294;BME280;1659;51.470;6.770;2023-01-31T08:20:31;102135.03;;;4.58;90.78
3294;BME280;1659;51.470;6.770;2023-01-31T08:22:59;102135.88;;;4.57;90.49
3294;BME280;1659;51.470;6.770;2023-01-31T08:25:26;102138.34;;;4.52;90.46
3294;BME280;1659;51.470;6.770;2023-01-31T08:27:56;102138.28;;;4.49;90.54
3294;BME280;1659;51.470;6.770;2023-01-31T08:30:22;102144.28;;;4.47;91.21
3294;BME280;1659;51.470;6.770;2023-01-31T08:33:04;102139.84;;;4.43;90.83
3294;BME280;1659;51.470;6.770;2023-01-31T08:35:30;102118.78;;;4.40;91.58
3294;BME280;1659;51.470;6.770;2023-01-31T08:37:57;102107.31;;;4.34;91.20
3294;BME280;1659;51.470;6.770;2023-01-31T08:40:27;102113.31;;;4.30;91.63
3294;BME280;1659;51.470;6.770;2023-01-31T08:42:54;102094.94;;;4.29;91.66
3294;BME280;1659;51.470;6.770;2023-01-31T08:45:21;102092.28;;;4.27;92.29
3294;BME280;1659;51.470;6.770;2023-01-31T08:47:52;102094.94;;;4.29;92.03
3294;BME280;1659;51.470;6.770;2023-01-31T08:50:18;102089.75;;;4.30;92.34
3294;BME280;1659;51.470;6.770;2023-01-31T08:52:45;102091.50;;;4.31;92.45
3294;BME280;1659;51.470;6.770;2023-01-31T08:55:11;102088.94;;;4.33;92.35
3294;BME280;1659;51.470;6.770;2023-01-31T08:57:42;102080.31;;;4.35;92.63
3294;BME280;1659;51.470;6.770;2023-01-31T09:00:11;102071.63;;;4.38;92.70
3294;BME280;1659;51.470;6.770;2023-01-31T09:02:38;102061.22;;;4.40;92.65
3294;BME280;1659;51.470;6.770;2023-01-31T09:05:05;102057.78;;;4.41;93.13
3294;BME280;1659;51.470;6.770;2023-01-31T09:07:32;102064.75;;;4.42;93.36
3294;BME280;1659;51.470;6.770;2023-01-31T09:09:59;102077.06;;;4.44;93.19
3294;BME280;1659;51.470;6.770;2023-01-31T09:12:25;102077.16;;;4.47;93.33
3294;BME280;1659;51.470;6.770;2023-01-31T09:14:54;102073.72;;;4.50;93.59
3294;BME280;1659;51.470;6.770;2023-01-31T09:17:21;102068.63;;;4.54;93.72
3294;BME280;1659;51.470;6.770;2023-01-31T09:19:47;102066.09;;;4.59;93.29
3294;BME280;1659;51.470;6.770;2023-01-31T09:22:14;102054.94;;;4.66;93.48
3294;BME280;1659;51.470;6.770;2023-01-31T09:24:41;102056.84;;;4.72;93.33
3294;BME280;1659;51.470;6.770;2023-01-31T09:27:08;102050.94;;;4.79;93.06
3294;BME280;1659;51.470;6.770;2023-01-31T09:29:34;102052.81;;;4.85;93.38
3294;BME280;1659;51.470;6.770;2023-01-31T09:32:07;102038.09;;;4.90;92.99
3294;BME280;1659;51.470;6.770;2023-01-31T09:34:34;102052.06;;;4.90;92.84
3294;BME280;1659;51.470;6.770;2023-01-31T09:37:00;102046.03;;;4.93;92.91
3294;BME280;1659;51.470;6.770;2023-01-31T09:39:27;102037.34;;;4.96;92.75
3294;BME280;1659;51.470;6.770;2023-01-31T09:41:57;102040.97;;;5.01;92.92
3294;BME280;1659;51.470;6.770;2023-01-31T09:44:27;102037.56;;;5.05;92.82
3294;BME280;1659;51.470;6.770;2023-01-31T09:47:00;102036.88;;;5.10;92.42
3294;BME280;1659;51.470;6.770;2023-01-31T09:49:40;102026.47;;;5.15;92.46
3294;BME280;1659;51.470;6.770;2023-01-31T09:52:09;102029.13;;;5.17;92.46
3294;BME280;1659;51.470;6.770;2023-01-31T09:54:38;102022.19;;;5.19;92.43
3294;BME280;1659;51.470;6.770;2023-01-31T09:57:15;102038.06;;;5.25;92.56
3294;BME280;1659;51.470;6.770;2023-01-31T09:59:50;102025.97;;;5.30;92.35
3294;BME280;1659;51.470;6.770;2023-01-31T10:02:34;102033.94;;;5.36;92.02
3294;BME280;1659;51.470;6.770;2023-01-31T10:05:17;102023.47;;;5.36;92.17
3294;BME280;1659;51.470;6.770;2023-01-31T10:07:49;102018.22;;;5.36;92.63
3294;BME280;1659;51.470;6.770;2023-01-31T10:10:26;102011.31;;;5.38;92.22
3294;BME280;1659;51.470;6.770;2023-01-31T10:13:04;101999.13;;;5.40;92.16
3294;BME280;1659;51.470;6.770;2023-01-31T10:15:39;102005.22;;;5.41;91.92
3294;BME280;1659;51.470;6.770;2023-01-31T10:18:39;102006.09;;;5.41;92.27
3294;BME280;1659;51.470;6.770;2023-01-31T10:21:28;102001.78;;;5.42;92.13
3294;BME280;1659;51.470;6.770;2023-01-31T10:24:00;101993.91;;;5.43;91.89
3294;BME280;1659;51.470;6.770;2023-01-31T10:26:30;101998.44;;;5.49;92.15
3294;BME280;1659;51.470;6.770;2023-01-31T10:29:03;101990.66;;;5.54;92.31
3294;BME280;1659;51.470;6.770;2023-01-31T10:31:33;101990.78;;;5.60;91.78
3294;BME280;1659;51.470;6.770;2023-01-31T10:34:04;102001.41;;;5.66;91.79
3294;BME280;1659;51.470;6.770;2023-01-31T10:36:39;101989.25;;;5.71;91.70
3294;BME280;1659;51.470;6.770;2023-01-31T10:39:14;101994.63;;;5.76;91.99
3294;BME280;1659;51.470;6.770;2023-01-31T10:42:01;101985.91;;;5.78;91.70
3294;BME280;1659;51.470;6.770;2023-01-31T10:44:39;101990.38;;;5.82;91.64
3294;BME280;1659;51.470;6.770;2023-01-31T10:47:11;101995.72;;;5.85;91.89
3294;BME280;1659;51.470;6.770;2023-01-31T10:49:38;101995.75;;;5.89;91.60
3294;BME280;1659;51.470;6.770;2023-01-31T10:52:17;101994.06;;;5.91;91.32
3294;BME280;1659;51.470;6.770;2023-01-31T10:54:52;101988.78;;;5.89;91.29
3294;BME280;1659;51.470;6.770;2023-01-31T10:57:24;101977.41;;;5.90;91.69
3294;BME280;1659;51.470;6.770;2023-01-31T10:59:52;101975.69;;;5.91;91.45
3294;BME280;1659;51.470;6.770;2023-01-31T11:02:21;101985.34;;;5.93;91.37
3294;BME280;1659;51.470;6.770;2023-01-31T11:04:49;101960.00;;;5.94;91.72
3294;BME280;1659;51.470;6.770;2023-01-31T11:07:18;101959.22;;;5.96;91.30
3294;BME280;1659;51.470;6.770;2023-01-31T11:09:48;101968.88;;;5.99;91.71
3294;BME280;1659;51.470;6.770;2023-01-31T11:12:16;101964.53;;;5.99;91.53
3294;BME280;1659;51.470;6.770;2023-01-31T11:14:42;101960.16;;;6.00;90.75
3294;BME280;1659;51.470;6.770;2023-01-31T11:17:14;101951.38;;;5.98;91.55
3294;BME280;1659;51.470;6.770;2023-01-31T11:19:44;101948.72;;;5.96;90.81
3294;BME280;1659;51.470;6.770;2023-01-31T11:22:22;101949.59;;;5.97;91.28
3294;BME280;1659;51.470;6.770;2023-01-31T11:24:51;101946.13;;;5.98;90.91
3294;BME280;1659;51.470;6.770;2023-01-31T11:27:24;101955.75;;;5.99;91.07
3294;BME280;1659;51.470;6.770;2023-01-31T11:29:52;101940.91;;;6.01;90.88
3294;BME280;1659;51.470;6.770;2023-01-31T11:32:25;101946.16;;;6.01;91.02
3294;BME280;1659;51.470;6.770;2023-01-31T11:34:57;101945.31;;;6.02;91.43
3294;BME280;1659;51.470;6.770;2023-01-31T11:37:26;101931.34;;;6.01;90.88
3294;BME280;1659;51.470;6.770;2023-01-31T11:39:55;101940.06;;;6.02;91.19
3294;BME280;1659;51.470;6.770;2023-01-31T11:42:22;101933.97;;;6.04;91.17
3294;BME280;1659;51.470;6.770;2023-01-31T11:44:53;101919.16;;;6.05;91.11
3294;BME280;1659;51.470;6.770;2023-01-31T11:47:25;101918.31;;;6.08;91.63
3294;BME280;1659;51.470;6.770;2023-01-31T11:49:52;101925.38;;;6.10;91.17
3294;BME280;1659;51.470;6.770;2023-01-31T11:52:20;101918.44;;;6.14;91.19
3294;BME280;1659;51.470;6.770;2023-01-31T11:54:53;101916.72;;;6.16;91.20
3294;BME280;1659;51.470;6.770;2023-01-31T11:57:22;101922.00;;;6.17;91.42
3294;BME280;1659;51.470;6.770;2023-01-31T11:59:52;101914.13;;;6.17;91.29
3294;BME280;1659;51.470;6.770;2023-01-31T12:02:26;101907.13;;;6.18;91.37
3294;BME280;1659;51.470;6.770;2023-01-31T12:04:53;101917.66;;;6.19;91.20
3294;BME280;1659;51.470;6.770;2023-01-31T12:07:21;101923.84;;;6.23;91.06
3294;BME280;1659;51.470;6.770;2023-01-31T12:09:50;101914.22;;;6.23;91.57
3294;BME280;1659;51.470;6.770;2023-01-31T12:12:23;101910.78;;;6.26;91.18
3294;BME280;1659;51.470;6.770;2023-01-31T12:14:50;101916.06;;;6.28;91.35
3294;BME280;1659;51.470;6.770;2023-01-31T12:17:20;101920.44;;;6.29;91.29
3294;BME280;1659;51.470;6.770;2023-01-31T12:20:00;101918.69;;;6.28;91.45
3294;BME280;1659;51.470;6.770;2023-01-31T12:22:31;101906.44;;;6.28;91.60
3294;BME280;1659;51.470;6.770;2023-01-31T12:25:17;101912.56;;;6.29;91.00
3294;BME280;1659;51.470;6.770;2023-01-31T12:27:53;101903.88;;;6.31;91.72
3294;BME280;1659;51.470;6.770;2023-01-31T12:30:34;101891.66;;;6.33;91.86
3294;BME280;1659;51.470;6.770;2023-01-31T12:33:17;101893.41;;;6.36;91.83
3294;BME280;1659;51.470;6.770;2023-01-31T12:36:00;101883.84;;;6.38;91.75
3294;BME280;1659;51.470;6.770;2023-01-31T12:38:42;101875.13;;;6.40;91.84
3294;BME280;1659;51.470;6.770;2023-01-31T12:41:24;101867.31;;;6.43;91.25
3294;BME280;1659;51.470;6.770;2023-01-31T12:44:06;101870.00;;;6.47;91.61
3294;BME280;1659;51.470;6.770;2023-01-31T12:46:47;101871.75;;;6.48;91.19
3294;BME280;1659;51.470;6.770;2023-01-31T12:49:40;101857.78;;;6.50;91.50
3294;BME280;1659;51.470;6.770;2023-01-31T12:52:14;101862.22;;;6.54;90.94
3294;BME280;1659;51.470;6.770;2023-01-31T12:54:54;101867.56;;;6.59;91.34
3294;BME280;1659;51.470;6.770;2023-01-31T12:57:33;101873.72;;;6.63;91.69
3294;BME280;1659;51.470;6.770;2023-01-31T13:00:22;101862.44;;;6.68;91.33
3294;BME280;1659;51.470;6.770;2023-01-31T13:03:04;101860.72;;;6.72;91.30
3294;BME280;1659;51.470;6.770;2023-01-31T13:05:38;101865.16;;;6.76;91.14
3294;BME280;1659;51.470;6.770;2023-01-31T13:08:13;101863.47;;;6.78;91.19
3294;BME280;1659;51.470;6.770;2023-01-31T13:10:44;101869.63;;;6.80;91.13
3294;BME280;1659;51.470;6.770;2023-01-31T13:13:17;101874.78;;;6.75;90.96
3294;BME280;1659;51.470;6.770;2023-01-31T13:15:48;101880.84;;;6.70;91.25
3294;BME280;1659;51.470;6.770;2023-01-31T13:18:17;101872.81;;;6.62;91.16
3294;BME280;1659;51.470;6.770;2023-01-31T13:20:49;101874.47;;;6.54;91.39
3294;BME280;1659;51.470;6.770;2023-01-31T13:23:22;101873.53;;;6.49;91.83
3294;BME280;1659;51.470;6.770;2023-01-31T13:25:58;101867.34;;;6.45;92.21
3294;BME280;1659;51.470;6.770;2023-01-31T13:28:33;101878.66;;;6.42;93.00
3294;BME280;1659;51.470;6.770;2023-01-31T13:31:04;101863.75;;;6.40;93.31
3294;BME280;1659;51.470;6.770;2023-01-31T13:33:34;101865.47;;;6.38;93.34
3294;BME280;1659;51.470;6.770;2023-01-31T13:36:15;101858.41;;;6.35;93.83
3294;BME280;1659;51.470;6.770;2023-01-31T13:38:45;101859.25;;;6.33;94.08
3294;BME280;1659;51.470;6.770;2023-01-31T13:41:19;101855.72;;;6.29;94.11